createdAt,value
2023-04-01T00:02:05.380Z,62.47
2023-04-01T00:04:33.355Z,64.22
2023-04-01T00:07:02.666Z,58.78
2023-04-01T00:09:30.223Z,55.20
2023-04-01T00:11:57.939Z,64.78
2023-04-01T00:14:25.331Z,71.93
2023-04-01T00:16:53.493Z,87.78
2023-04-01T00:19:20.964Z,79.70
2023-04-01T00:21:49.025Z,85.15
2023-04-01T00:24:16.372Z,85.60
2023-04-01T00:26:45.046Z,81.15
2023-04-01T00:29:12.573Z,115.18
2023-04-01T00:31:39.977Z,88.95
2023-04-01T00:34:07.324Z,96.28
2023-04-01T00:36:34.671Z,93.97
2023-04-01T00:39:02.033Z,95.55
2023-04-01T00:41:30.380Z,109.47
2023-04-01T00:44:19.108Z,104.80
2023-04-01T00:46:46.570Z,125.60
2023-04-01T00:49:14.583Z,113.60
2023-04-01T00:51:43.052Z,113.22
2023-04-01T00:54:11.758Z,102.75
2023-04-01T00:56:50.714Z,104.68
2023-04-01T00:59:22.433Z,89.63
2023-04-01T01:01:50.596Z,92.72
2023-04-01T01:04:27.890Z,93.13
2023-04-01T01:07:21.760Z,71.18
2023-04-01T01:10:03.857Z,83.68
2023-04-01T01:12:33.910Z,86.47
2023-04-01T01:15:17.044Z,89.43
2023-04-01T01:20:42.533Z,84.22
2023-04-01T01:23:28.628Z,80.15
2023-04-01T01:26:33.805Z,62.97
2023-04-01T01:29:34.218Z,70.25
2023-04-01T01:32:17.192Z,79.15
2023-04-01T01:35:19.224Z,76.18
2023-04-01T01:37:48.286Z,67.60
2023-04-01T01:40:17.114Z,69.07
2023-04-01T01:42:48.768Z,78.65
2023-04-01T01:45:19.543Z,64.75
2023-04-01T01:47:47.389Z,67.22
2023-04-01T01:50:17.173Z,72.25
2023-04-01T01:52:44.513Z,61.45
2023-04-01T01:55:28.789Z,72.68
2023-04-01T01:57:58.386Z,59.38
2023-04-01T02:00:26.120Z,50.08
2023-04-01T02:02:53.617Z,61.67
2023-04-01T02:05:24.687Z,53.70
2023-04-01T02:07:59.054Z,56.35
2023-04-01T02:10:27.401Z,50.47
2023-04-01T02:12:59.225Z,51.42
2023-04-01T02:15:28.304Z,51.15
2023-04-01T02:17:57.976Z,47.58
2023-04-01T02:20:26.438Z,55.75
2023-04-01T02:22:56.150Z,56.92
2023-04-01T02:25:29.391Z,61.65
2023-04-01T02:27:58.146Z,52.15
2023-04-01T02:30:27.985Z,53.17
2023-04-01T02:32:56.959Z,65.20
2023-04-01T02:35:24.512Z,65.57
2023-04-01T02:37:52.741Z,60.13
2023-04-01T02:40:21.450Z,58.47
2023-04-01T02:42:49.036Z,62.35
2023-04-01T02:45:16.755Z,66.10
2023-04-01T02:47:45.668Z,56.00
2023-04-01T02:50:13.228Z,57.67
2023-04-01T02:52:43.237Z,50.03
2023-04-01T02:55:10.949Z,49.38
2023-04-01T02:57:38.492Z,42.92
2023-04-01T03:00:12.014Z,48.65
2023-04-01T03:02:42.608Z,47.85
2023-04-01T03:05:10.174Z,42.33
2023-04-01T03:07:37.671Z,38.90
2023-04-01T03:10:05.953Z,32.20
2023-04-01T03:12:33.311Z,29.85
2023-04-01T03:15:10.610Z,24.75
2023-04-01T03:17:39.377Z,23.73
2023-04-01T03:20:09.447Z,28.50
2023-04-01T03:22:43.267Z,21.83
2023-04-01T03:25:12.137Z,30.10
2023-04-01T03:27:39.561Z,15.13
2023-04-01T03:30:07.892Z,24.77
2023-04-01T03:32:35.674Z,18.40
2023-04-01T03:35:03.227Z,21.67
2023-04-01T03:37:30.680Z,15.35
2023-04-01T03:39:58.031Z,17.25
2023-04-01T03:42:25.449Z,17.52
2023-04-01T03:44:52.831Z,17.33
2023-04-01T03:47:20.206Z,26.20
2023-04-01T03:49:47.588Z,26.48
2023-04-01T03:52:14.916Z,26.92
2023-04-01T03:54:43.411Z,25.55
2023-04-01T03:57:10.851Z,26.42
2023-04-01T03:59:38.390Z,29.88
2023-04-01T04:02:06.091Z,29.55
2023-04-01T04:04:33.665Z,34.55
2023-04-01T04:07:01.111Z,35.30
2023-04-01T04:09:30.850Z,43.28
2023-04-01T04:11:58.361Z,38.92
2023-04-01T04:14:26.078Z,43.90
2023-04-01T04:16:53.787Z,39.03
2023-04-01T04:19:21.160Z,39.33
2023-04-01T04:21:48.531Z,49.00
2023-04-01T04:24:16.135Z,46.22
2023-04-01T04:26:43.474Z,47.60
2023-04-01T04:29:10.851Z,45.17
2023-04-01T04:31:38.696Z,42.72
2023-04-01T04:34:06.046Z,50.35
2023-04-01T04:36:33.320Z,46.90
2023-04-01T04:39:03.220Z,60.85
2023-04-01T04:41:30.736Z,54.22
2023-04-01T04:43:59.588Z,54.95
2023-04-01T04:46:27.385Z,58.63
2023-04-01T04:48:54.730Z,66.13
2023-04-01T04:51:22.522Z,61.85
2023-04-01T04:53:51.576Z,69.07
2023-04-01T04:56:26.299Z,56.13
2023-04-01T04:58:53.883Z,54.08
2023-04-01T05:01:22.544Z,53.00
2023-04-01T05:03:50.942Z,52.90
2023-04-01T05:06:19.734Z,49.60
2023-04-01T05:08:48.353Z,59.60
2023-04-01T05:11:17.934Z,56.42
2023-04-01T05:13:51.706Z,53.75
2023-04-01T05:16:28.664Z,55.55
2023-04-01T05:19:08.149Z,53.58
2023-04-01T05:21:39.775Z,50.67
2023-04-01T05:24:13.043Z,50.58
2023-04-01T05:26:51.089Z,50.10
2023-04-01T05:29:18.533Z,49.88
2023-04-01T05:31:45.988Z,51.00
2023-04-01T05:34:14.021Z,52.58
2023-04-01T05:36:42.725Z,51.83
2023-04-01T05:39:10.676Z,51.40
2023-04-01T05:41:38.623Z,55.25
2023-04-01T05:44:06.518Z,57.10
2023-04-01T05:46:34.232Z,56.05
2023-04-01T05:49:01.629Z,53.08
2023-04-01T05:51:28.935Z,47.13
2023-04-01T05:53:56.255Z,51.38
2023-04-01T05:56:23.757Z,53.28
2023-04-01T05:59:05.695Z,55.83
2023-04-01T06:01:45.801Z,49.25
2023-04-01T06:04:17.117Z,48.20
2023-04-01T06:06:56.608Z,53.30
2023-04-01T06:09:30.220Z,51.30
2023-04-01T06:12:36.059Z,55.50
2023-04-01T06:15:36.879Z,51.55
2023-04-01T06:18:14.262Z,53.95
2023-04-01T06:21:26.168Z,47.28
2023-04-01T06:24:19.538Z,51.92
2023-04-01T06:29:35.826Z,61.05
2023-04-01T06:32:32.470Z,62.92
2023-04-01T06:35:13.455Z,62.22
2023-04-01T06:38:18.302Z,62.58
2023-04-01T06:41:07.770Z,57.47
2023-04-01T06:43:44.786Z,63.40
2023-04-01T06:46:28.130Z,55.08
2023-04-01T06:49:01.651Z,65.40
2023-04-01T06:51:38.865Z,60.30
2023-04-01T06:54:27.465Z,61.30
2023-04-01T06:57:06.803Z,54.53
2023-04-01T06:59:35.375Z,57.05
2023-04-01T07:02:11.611Z,54.67
2023-04-01T07:04:44.306Z,58.83
2023-04-01T07:07:37.434Z,50.55
2023-04-01T07:10:11.597Z,58.53
2023-04-01T07:12:44.508Z,52.65
2023-04-01T07:17:43.602Z,49.33
2023-04-01T07:20:32.951Z,55.33
2023-04-01T07:23:05.790Z,49.83
2023-04-01T07:28:14.203Z,53.67
2023-04-01T07:30:57.662Z,49.03
2023-04-01T07:33:47.063Z,51.13
2023-04-01T07:36:26.224Z,52.75
2023-04-01T07:39:12.535Z,45.35
2023-04-01T07:41:58.540Z,45.50
2023-04-01T07:44:34.734Z,36.72
2023-04-01T07:47:18.231Z,42.22
2023-04-01T07:50:09.613Z,44.75
2023-04-01T07:52:56.562Z,33.75
2023-04-01T07:55:36.186Z,35.28
2023-04-01T07:58:19.135Z,34.22
2023-04-01T08:01:06.266Z,29.45
2023-04-01T08:03:53.266Z,28.08
2023-04-01T08:06:26.879Z,23.20
2023-04-01T08:09:11.950Z,25.70
2023-04-01T08:12:07.238Z,24.67
2023-04-01T08:15:01.480Z,16.88
2023-04-01T08:17:34.620Z,15.85
2023-04-01T08:20:15.844Z,18.77
2023-04-01T08:23:03.980Z,14.70
2023-04-01T08:25:34.133Z,13.00
2023-04-01T08:28:09.817Z,16.77
2023-04-01T08:30:44.819Z,12.50
2023-04-01T08:33:18.015Z,13.00
2023-04-01T08:36:13.378Z,13.32
2023-04-01T08:39:11.656Z,15.35
2023-04-01T08:41:59.843Z,14.65
2023-04-01T08:44:51.757Z,16.50
2023-04-01T08:47:49.856Z,17.30
2023-04-01T08:50:50.852Z,18.75
2023-04-01T08:53:37.108Z,20.10
2023-04-01T08:56:31.562Z,22.45
2023-04-01T08:58:58.815Z,25.45
2023-04-01T09:02:05.658Z,25.08
2023-04-01T09:04:41.145Z,23.88
2023-04-01T09:07:29.717Z,25.25
2023-04-01T09:09:59.875Z,23.38
2023-04-01T09:12:46.862Z,27.90
2023-04-01T09:15:14.219Z,30.38
2023-04-01T09:18:06.420Z,27.00
2023-04-01T09:21:11.649Z,29.25
2023-04-01T09:23:49.809Z,23.88
2023-04-01T09:26:27.078Z,24.88
2023-04-01T09:29:00.212Z,26.98
2023-04-01T09:32:00.205Z,27.38
2023-04-01T09:34:45.993Z,27.42
2023-04-01T09:37:32.386Z,27.20
2023-04-01T09:40:11.496Z,28.42
2023-04-01T09:43:25.115Z,29.33
2023-04-01T09:46:15.046Z,31.75
2023-04-01T09:48:48.780Z,25.58
2023-04-01T09:51:35.237Z,27.90
2023-04-01T09:54:13.290Z,23.77
2023-04-01T09:57:01.792Z,20.40
2023-04-01T09:59:51.115Z,26.65
2023-04-01T10:02:52.209Z,26.92
2023-04-01T10:05:34.992Z,22.77
2023-04-01T10:10:58.336Z,30.85
2023-04-01T10:13:28.426Z,26.92
2023-04-01T10:16:09.894Z,28.52
2023-04-01T10:19:26.681Z,31.48
2023-04-01T10:22:16.014Z,33.50
2023-04-01T10:24:48.382Z,30.95
2023-04-01T10:27:36.085Z,29.67
2023-04-01T10:30:30.514Z,19.50
2023-04-01T10:33:16.259Z,18.20
2023-04-01T10:36:13.617Z,15.75
2023-04-01T10:39:18.710Z,16.40
2023-04-01T10:42:12.560Z,12.63
2023-04-01T10:44:52.395Z,17.35
2023-04-01T10:47:40.041Z,15.38
2023-04-01T10:50:25.591Z,19.80
2023-04-01T10:53:19.100Z,15.55
2023-04-01T10:56:01.274Z,16.10
2023-04-01T10:58:28.601Z,15.70
2023-04-01T11:01:27.591Z,15.45
2023-04-01T11:04:20.238Z,13.25
2023-04-01T11:06:56.537Z,18.27
2023-04-01T11:09:53.305Z,15.82
2023-04-01T11:12:34.238Z,15.15
2023-04-01T11:15:12.257Z,15.45
2023-04-01T11:18:17.624Z,15.52
2023-04-01T11:21:15.475Z,15.88
2023-04-01T11:24:05.046Z,19.80
2023-04-01T11:27:06.981Z,18.40
2023-04-01T11:30:00.128Z,17.05
2023-04-01T11:32:37.251Z,16.65
2023-04-01T11:35:38.871Z,12.63
2023-04-01T11:38:29.573Z,13.60
2023-04-01T11:41:22.963Z,15.32
2023-04-01T11:46:32.449Z,13.57
2023-04-01T11:49:08.088Z,13.88
2023-04-01T11:51:41.503Z,14.95
2023-04-01T11:54:27.770Z,15.55
2023-04-01T11:57:29.139Z,15.52
2023-04-01T12:00:02.732Z,17.60
2023-04-01T12:03:08.240Z,21.65
2023-04-01T12:05:43.274Z,18.50
2023-04-01T12:08:33.014Z,16.98
2023-04-01T12:11:19.612Z,17.92
2023-04-01T12:14:01.391Z,20.25
2023-04-01T12:17:11.009Z,20.40
2023-04-01T12:20:24.701Z,18.48
2023-04-01T12:23:04.450Z,23.17
2023-04-01T12:25:47.672Z,19.55
2023-04-01T12:28:26.857Z,19.52
2023-04-01T12:31:20.958Z,18.90
2023-04-01T12:34:00.338Z,21.23
2023-04-01T12:37:00.464Z,22.83
2023-04-01T12:39:51.162Z,22.48
2023-04-01T12:42:34.633Z,24.80
2023-04-01T12:45:40.551Z,24.98
2023-04-01T12:48:18.270Z,22.85
2023-04-01T12:51:00.240Z,25.20
2023-04-01T12:53:41.664Z,25.08
2023-04-01T12:56:30.075Z,27.70
2023-04-01T12:59:21.379Z,24.20
2023-04-01T13:02:03.706Z,22.27
2023-04-01T13:04:34.367Z,24.33
2023-04-01T13:07:25.636Z,25.98
2023-04-01T13:10:12.088Z,24.92
2023-04-01T13:12:50.099Z,21.00
2023-04-01T13:15:27.741Z,21.08
2023-04-01T13:18:13.951Z,21.13
2023-04-01T13:21:10.123Z,22.33
2023-04-01T13:23:59.395Z,24.20
2023-04-01T13:26:41.824Z,24.42
2023-04-01T13:29:15.756Z,21.10
2023-04-01T13:32:10.836Z,20.95
2023-04-01T13:34:49.366Z,22.92
2023-04-01T13:37:44.632Z,23.23
2023-04-01T13:40:29.475Z,22.23
2023-04-01T13:43:13.214Z,22.38
2023-04-01T13:46:06.012Z,22.67
2023-04-01T13:48:56.666Z,23.17
2023-04-01T13:52:05.945Z,25.42
2023-04-01T13:54:54.075Z,24.77
2023-04-01T13:57:28.649Z,29.80
2023-04-01T14:00:12.145Z,26.70
2023-04-01T14:02:58.011Z,29.80
2023-04-01T14:05:52.601Z,30.10
2023-04-01T14:08:37.328Z,25.55
2023-04-01T14:11:33.693Z,23.60
2023-04-01T14:14:28.490Z,24.80
2023-04-01T14:17:31.393Z,22.92
2023-04-01T14:20:14.454Z,25.40
2023-04-01T14:25:44.877Z,28.88
2023-04-01T14:28:32.725Z,27.40
2023-04-01T14:31:21.316Z,34.00
2023-04-01T14:34:11.108Z,31.27
2023-04-01T14:36:53.750Z,37.53
2023-04-01T14:39:46.333Z,29.42
2023-04-01T14:42:28.994Z,26.90
2023-04-01T14:45:14.486Z,30.88
2023-04-01T14:48:00.495Z,30.90
2023-04-01T14:50:41.572Z,24.42
2023-04-01T14:53:08.804Z,27.02
2023-04-01T14:55:44.138Z,24.55
2023-04-01T14:58:17.101Z,20.77
2023-04-01T15:01:00.559Z,22.48
2023-04-01T15:03:50.074Z,24.10
2023-04-01T15:06:26.499Z,26.17
2023-04-01T15:09:02.996Z,23.42
2023-04-01T15:11:49.424Z,21.52
2023-04-01T15:14:31.047Z,19.77
2023-04-01T15:17:03.846Z,21.58
2023-04-01T15:19:55.834Z,26.05
2023-04-01T15:22:41.385Z,19.65
2023-04-01T15:25:23.939Z,22.67
2023-04-01T15:28:05.421Z,26.23
2023-04-01T15:30:51.319Z,32.42
2023-04-01T15:33:33.984Z,20.90
2023-04-01T15:36:16.326Z,27.52
2023-04-01T15:38:51.661Z,28.30
2023-04-01T15:41:46.901Z,28.05
2023-04-01T15:44:32.729Z,26.35
2023-04-01T15:47:00.437Z,28.65
2023-04-01T15:49:44.813Z,37.55
2023-04-01T15:52:24.337Z,30.83
2023-04-01T15:55:37.041Z,21.58
2023-04-01T15:58:32.344Z,18.42
2023-04-01T16:01:27.253Z,22.38
2023-04-01T16:04:28.550Z,21.98
2023-04-01T16:06:59.099Z,27.10
2023-04-01T16:09:45.061Z,23.80
2023-04-01T16:12:20.616Z,28.35
2023-04-01T16:15:29.500Z,23.13
2023-04-01T16:18:02.022Z,22.08
2023-04-01T16:21:06.382Z,21.80
2023-04-01T16:23:48.601Z,17.95
2023-04-01T16:26:48.875Z,20.80
2023-04-01T16:29:19.264Z,19.75
2023-04-01T16:31:52.665Z,20.25
2023-04-01T16:34:35.782Z,19.00
2023-04-01T16:39:51.603Z,19.00
2023-04-01T16:42:31.884Z,18.08
2023-04-01T16:45:29.630Z,17.95
2023-04-01T16:48:06.350Z,16.85
2023-04-01T16:50:43.948Z,12.23
2023-04-01T16:53:21.932Z,15.02
2023-04-01T16:56:07.853Z,11.60
2023-04-01T16:58:57.401Z,13.88
2023-04-01T17:01:55.524Z,14.63
2023-04-01T17:04:45.974Z,13.77
2023-04-01T17:07:47.912Z,15.25
2023-04-01T17:10:41.336Z,15.77
2023-04-01T17:13:21.540Z,17.35
2023-04-01T17:16:01.742Z,14.65
2023-04-01T17:18:39.003Z,16.50
2023-04-01T17:21:40.928Z,19.48
2023-04-01T17:24:33.196Z,14.45
2023-04-01T17:27:22.467Z,16.42
2023-04-01T17:30:16.245Z,13.93
2023-04-01T17:32:52.609Z,13.85
2023-04-01T17:35:40.450Z,13.45
2023-04-01T17:38:34.951Z,11.48
2023-04-01T17:41:21.239Z,14.30
2023-04-01T17:44:25.931Z,11.85
2023-04-01T17:47:24.034Z,12.32
2023-04-01T17:50:09.847Z,10.10
2023-04-01T17:52:57.440Z,9.30
2023-04-01T17:56:03.842Z,9.30
2023-04-01T17:58:34.996Z,9.57
2023-04-01T18:01:38.538Z,8.90
2023-04-01T18:07:11.139Z,9.60
2023-04-01T18:09:53.677Z,9.52
2023-04-01T18:12:32.470Z,9.60
2023-04-01T18:15:11.998Z,10.27
2023-04-01T18:18:00.794Z,9.23
2023-04-01T18:20:34.161Z,9.32
2023-04-01T18:23:13.723Z,9.38
2023-04-01T18:25:49.515Z,9.57
2023-04-01T18:28:35.617Z,9.45
2023-04-01T18:31:32.132Z,9.57
2023-04-01T18:34:31.102Z,9.93
2023-04-01T18:37:14.010Z,8.90
2023-04-01T18:39:52.952Z,9.18
2023-04-01T18:42:43.314Z,7.90
2023-04-01T18:45:29.628Z,8.00
2023-04-01T18:48:22.799Z,8.68
2023-04-01T18:51:01.792Z,7.25
2023-04-01T18:53:49.626Z,7.53
2023-04-01T18:56:37.347Z,7.38
2023-04-01T18:59:31.101Z,7.88
2023-04-01T19:02:26.283Z,7.97
2023-04-01T19:05:25.044Z,9.15
2023-04-01T19:07:57.443Z,9.13
2023-04-01T19:10:28.824Z,9.68
2023-04-01T19:13:21.128Z,10.73
2023-04-01T19:16:07.343Z,9.82
2023-04-01T19:18:58.514Z,9.43
2023-04-01T19:21:36.873Z,9.75
2023-04-01T19:24:48.651Z,10.07
2023-04-01T19:27:28.174Z,9.48
2023-04-01T19:30:18.436Z,10.52
2023-04-01T19:33:24.716Z,10.70
2023-04-01T19:36:16.077Z,9.48
2023-04-01T19:39:01.540Z,9.38
2023-04-01T19:41:41.940Z,9.73
2023-04-01T19:44:18.078Z,10.40
2023-04-01T19:46:52.786Z,9.80
2023-04-01T19:49:33.468Z,9.70
2023-04-01T19:52:17.834Z,8.43
2023-04-01T19:55:20.465Z,8.93
2023-04-01T19:57:52.786Z,8.70
2023-04-01T20:00:33.132Z,10.60
2023-04-01T20:03:39.556Z,11.07
2023-04-01T20:06:31.392Z,12.35
2023-04-01T20:09:33.204Z,11.00
2023-04-01T20:12:21.876Z,12.38
2023-04-01T20:14:59.002Z,11.50
2023-04-01T20:17:38.860Z,10.68
2023-04-01T20:20:31.347Z,10.80
2023-04-01T20:23:04.571Z,11.80
2023-04-01T20:26:16.391Z,13.52
2023-04-01T20:29:26.047Z,15.00
2023-04-01T20:32:24.586Z,15.07
2023-04-01T20:35:38.428Z,14.77
2023-04-01T20:38:33.774Z,15.85
2023-04-01T20:41:31.765Z,15.93
2023-04-01T20:44:32.730Z,16.17
2023-04-01T20:47:45.289Z,17.45
2023-04-01T20:50:37.779Z,17.95
2023-04-01T20:53:26.708Z,16.85
2023-04-01T20:55:57.960Z,15.48
2023-04-01T20:58:49.790Z,17.08
2023-04-01T21:01:44.244Z,17.63
2023-04-01T21:04:56.900Z,15.02
2023-04-01T21:07:44.126Z,14.75
2023-04-01T21:10:20.368Z,14.55
2023-04-01T21:13:10.189Z,15.77
2023-04-01T21:16:21.943Z,15.77
2023-04-01T21:19:10.707Z,14.13
2023-04-01T21:21:57.338Z,15.70
2023-04-01T21:24:52.738Z,16.00
2023-04-01T21:27:29.925Z,14.10
2023-04-01T21:30:29.892Z,15.32
2023-04-01T21:33:14.833Z,14.23
2023-04-01T21:36:09.824Z,17.08
2023-04-01T21:39:06.767Z,17.88
2023-04-01T21:41:48.947Z,17.60
2023-04-01T21:44:38.879Z,16.17
2023-04-01T21:47:48.232Z,16.85
2023-04-01T21:50:16.496Z,18.40
2023-04-01T21:52:46.536Z,17.98
2023-04-01T21:55:16.730Z,17.25
2023-04-01T21:57:47.076Z,18.08
2023-04-01T22:00:33.846Z,17.52
2023-04-01T22:03:39.220Z,14.77
2023-04-01T22:06:23.061Z,15.45
2023-04-01T22:09:05.798Z,15.65
2023-04-01T22:11:46.499Z,15.35
2023-04-01T22:14:35.994Z,16.63
2023-04-01T22:17:39.776Z,16.15
2023-04-01T22:20:28.287Z,14.80
2023-04-01T22:23:34.599Z,15.38
2023-04-01T22:26:11.486Z,14.18
2023-04-01T22:29:07.876Z,15.50
2023-04-01T22:31:52.965Z,12.82
2023-04-01T22:34:36.291Z,14.73
2023-04-01T22:37:18.948Z,15.20
2023-04-01T22:40:18.744Z,15.25
2023-04-01T22:43:05.217Z,15.70
2023-04-01T22:45:49.334Z,16.58
2023-04-01T22:48:47.885Z,22.02
2023-04-01T22:51:24.732Z,16.58
2023-04-01T22:54:29.562Z,17.00
2023-04-01T22:57:36.655Z,16.17
2023-04-01T23:00:19.792Z,19.50
2023-04-01T23:03:11.027Z,16.30
2023-04-01T23:05:58.109Z,17.63
2023-04-01T23:09:04.852Z,15.30
2023-04-01T23:11:45.461Z,19.27
2023-04-01T23:14:28.691Z,15.60
2023-04-01T23:17:18.819Z,17.60
2023-04-01T23:20:10.799Z,17.27
2023-04-01T23:23:05.875Z,15.98
2023-04-01T23:26:22.601Z,15.05
2023-04-01T23:28:58.024Z,16.55
2023-04-01T23:31:46.458Z,19.98
2023-04-01T23:34:58.423Z,17.85
2023-04-01T23:37:35.110Z,17.92
2023-04-01T23:40:09.938Z,17.08
2023-04-01T23:42:42.562Z,20.25
2023-04-01T23:45:29.848Z,14.82
2023-04-01T23:47:57.381Z,15.07
2023-04-01T23:50:28.113Z,16.48
2023-04-01T23:53:04.922Z,16.13
2023-04-01T23:55:36.130Z,16.23
2023-04-01T23:58:14.563Z,19.35
